Time;durP1;ratioP1;P1;durP2;ratioP2;P2;SDS_P1;SDS_P2;PMS_P1;PMS_P2;Temp;Humidity;BMP_temperature;BMP_pressure;BME280_temperature;BME280_humidity;BME280_pressure;Samples;Min_cycle;Max_cycle;Signal;HPM_P1;HPM_P2
2022/02/17 00:02:09;;;;;;;41.70;23.05;;;;;;;;;;6310779;28;20076;-65
2022/02/17 00:05:12;;;;;;;44.22;23.60;;;;;;;;;;6307856;28;20051;-65
2022/02/17 00:08:14;;;;;;;42.03;22.88;;;;;;;;;;6308963;28;20179;-65
2022/02/17 00:11:16;;;;;;;45.60;25.67;;;;;;;;;;6302978;28;20052;-64
2022/02/17 00:14:19;;;;;;;46.83;25.40;;;;;;;;;;6302090;28;20121;-66
2022/02/17 00:17:20;;;;;;;39.67;22.77;;;;;;;;;;6307222;28;20071;-65
2022/02/17 00:20:22;;;;;;;43.05;24.80;;;;;;;;;;6308378;28;20053;-66
2022/02/17 00:23:24;;;;;;;42.92;25.05;;;;;;;;;;6312445;28;20083;-67
2022/02/17 00:26:26;;;;;;;41.70;23.95;;;;;;;;;;6311831;28;20565;-65
2022/02/17 00:29:29;;;;;;;42.20;23.70;;;;;;;;;;6311828;28;20139;-65
2022/02/17 00:32:31;;;;;;;45.70;24.05;;;;;;;;;;6311007;28;20528;-66
2022/02/17 00:35:32;;;;;;;42.17;23.45;;;;;;;;;;6307856;28;20131;-65
2022/02/17 00:38:34;;;;;;;45.13;23.50;;;;;;;;;;6307782;28;20140;-66
2022/02/17 00:41:36;;;;;;;47.33;24.48;;;;;;;;;;6305778;28;20101;-66
2022/02/17 00:44:39;;;;;;;46.17;24.10;;;;;;;;;;6306133;28;20051;-65
2022/02/17 00:47:40;;;;;;;44.35;24.30;;;;;;;;;;6299655;28;20114;-68
2022/02/17 00:50:42;;;;;;;38.88;22.27;;;;;;;;;;6308602;28;20097;-65
2022/02/17 00:53:43;;;;;;;41.03;22.77;;;;;;;;;;6305808;28;20511;-65
2022/02/17 00:56:45;;;;;;;39.60;22.25;;;;;;;;;;6307011;28;20088;-65
2022/02/17 00:59:48;;;;;;;39.85;22.42;;;;;;;;;;6310032;28;20205;-65
2022/02/17 01:02:49;;;;;;;44.45;24.05;;;;;;;;;;6310285;28;20117;-64
2022/02/17 01:05:51;;;;;;;43.28;24.25;;;;;;;;;;6313312;28;20173;-65
2022/02/17 01:08:53;;;;;;;41.85;23.75;;;;;;;;;;6309052;28;20178;-65
2022/02/17 01:11:54;;;;;;;44.55;23.52;;;;;;;;;;6304092;28;20097;-66
2022/02/17 01:14:57;;;;;;;40.60;22.90;;;;;;;;;;6306767;28;20149;-64
2022/02/17 01:17:59;;;;;;;42.63;22.55;;;;;;;;;;6303117;28;20062;-66
2022/02/17 01:21:01;;;;;;;40.80;21.92;;;;;;;;;;6305393;28;20249;-66
2022/02/17 01:24:03;;;;;;;38.55;21.35;;;;;;;;;;6306064;28;20151;-65
2022/02/17 01:27:05;;;;;;;40.25;21.77;;;;;;;;;;6308784;28;20055;-65
2022/02/17 01:30:10;;;;;;;41.63;22.27;;;;;;;;;;6309303;28;20125;-66
2022/02/17 01:33:12;;;;;;;39.30;21.85;;;;;;;;;;6303791;28;20139;-64
2022/02/17 01:36:13;;;;;;;40.45;21.38;;;;;;;;;;6302262;28;20515;-65
2022/02/17 01:39:15;;;;;;;41.13;23.05;;;;;;;;;;6301948;28;20044;-70
2022/02/17 01:42:17;;;;;;;42.10;22.55;;;;;;;;;;6302552;28;20057;-65
2022/02/17 01:45:20;;;;;;;38.33;22.05;;;;;;;;;;6308585;28;20166;-65
2022/02/17 01:48:22;;;;;;;39.55;22.10;;;;;;;;;;6302614;28;20076;-66
2022/02/17 01:51:23;;;;;;;42.60;22.17;;;;;;;;;;6307723;28;20055;-65
2022/02/17 01:54:25;;;;;;;40.95;21.75;;;;;;;;;;6308045;28;20131;-65
2022/02/17 01:57:29;;;;;;;39.03;22.52;;;;;;;;;;6310011;28;20193;-65
2022/02/17 02:00:32;;;;;;;36.93;21.13;;;;;;;;;;6300841;28;20078;-65
2022/02/17 02:03:33;;;;;;;43.45;21.65;;;;;;;;;;6304562;28;20090;-66
2022/02/17 02:06:35;;;;;;;42.08;22.58;;;;;;;;;;6307866;28;20048;-66
2022/02/17 02:09:38;;;;;;;40.05;22.30;;;;;;;;;;6305136;28;20499;-65
2022/02/17 02:12:40;;;;;;;37.22;21.45;;;;;;;;;;6303553;28;20412;-66
2022/02/17 02:15:48;;;;;;;39.97;22.50;;;;;;;;;;6302613;28;20457;-65
2022/02/17 02:18:50;;;;;;;43.00;22.15;;;;;;;;;;6297968;28;20138;-65
2022/02/17 02:21:53;;;;;;;36.88;21.63;;;;;;;;;;6303691;28;20131;-66
2022/02/17 02:24:58;;;;;;;42.17;22.92;;;;;;;;;;6306395;28;20602;-65
2022/02/17 02:28:00;;;;;;;40.65;22.42;;;;;;;;;;6304871;28;20052;-65
2022/02/17 02:31:01;;;;;;;39.67;21.95;;;;;;;;;;6305520;28;20169;-65
2022/02/17 02:34:03;;;;;;;36.28;20.83;;;;;;;;;;6306135;28;20127;-66
2022/02/17 02:37:07;;;;;;;38.45;21.17;;;;;;;;;;6307762;28;20381;-65
2022/02/17 02:40:09;;;;;;;42.10;21.50;;;;;;;;;;6306684;28;20593;-65
2022/02/17 02:43:11;;;;;;;35.50;21.13;;;;;;;;;;6305258;28;20490;-65
2022/02/17 02:46:13;;;;;;;41.17;21.52;;;;;;;;;;6310768;28;20435;-66
2022/02/17 02:49:14;;;;;;;42.40;23.80;;;;;;;;;;6304840;28;20048;-65
2022/02/17 02:52:17;;;;;;;40.88;22.42;;;;;;;;;;6302457;28;20618;-65
2022/02/17 02:55:19;;;;;;;42.33;21.98;;;;;;;;;;6301682;28;20185;-65
2022/02/17 02:58:20;;;;;;;41.20;22.25;;;;;;;;;;6303540;28;20134;-65
2022/02/17 03:01:22;;;;;;;40.08;21.52;;;;;;;;;;6300346;28;20479;-66
2022/02/17 03:04:23;;;;;;;37.17;21.70;;;;;;;;;;6308115;28;20149;-64
2022/02/17 03:07:26;;;;;;;36.55;21.08;;;;;;;;;;6303057;28;20041;-64
2022/02/17 03:10:30;;;;;;;36.45;20.50;;;;;;;;;;6312109;28;20123;-67
2022/02/17 03:13:32;;;;;;;38.45;21.80;;;;;;;;;;6310606;28;20044;-65
2022/02/17 03:16:34;;;;;;;37.38;21.73;;;;;;;;;;6312878;28;20181;-67
2022/02/17 03:19:35;;;;;;;34.63;21.00;;;;;;;;;;6310874;28;20036;-64
2022/02/17 03:22:40;;;;;;;33.58;19.65;;;;;;;;;;6312049;28;20124;-64
2022/02/17 03:25:42;;;;;;;32.78;19.65;;;;;;;;;;6311203;28;20064;-65
2022/02/17 03:28:43;;;;;;;33.33;19.27;;;;;;;;;;6310389;28;20052;-66
2022/02/17 03:31:45;;;;;;;33.53;19.30;;;;;;;;;;6305832;28;20208;-66
2022/02/17 03:34:46;;;;;;;33.80;20.30;;;;;;;;;;6308868;28;20129;-65
2022/02/17 03:37:49;;;;;;;30.67;17.90;;;;;;;;;;6306837;28;20135;-66
2022/02/17 03:40:51;;;;;;;34.75;19.60;;;;;;;;;;6303903;28;20092;-66
2022/02/17 03:43:52;;;;;;;33.53;18.85;;;;;;;;;;6308530;28;20133;-66
2022/02/17 03:46:54;;;;;;;31.00;18.50;;;;;;;;;;6315226;28;20109;-66
2022/02/17 03:49:56;;;;;;;34.08;18.73;;;;;;;;;;6312818;28;20093;-65
2022/02/17 03:52:59;;;;;;;30.40;18.95;;;;;;;;;;6312992;28;20056;-67
2022/02/17 03:56:00;;;;;;;29.83;18.70;;;;;;;;;;6311159;28;20138;-67
2022/02/17 03:59:03;;;;;;;34.17;19.08;;;;;;;;;;6312339;28;20109;-67
2022/02/17 04:02:05;;;;;;;32.97;19.83;;;;;;;;;;6309640;28;20126;-67
2022/02/17 04:05:07;;;;;;;35.58;19.60;;;;;;;;;;6312239;28;20129;-66
2022/02/17 04:08:10;;;;;;;32.08;18.35;;;;;;;;;;6309178;28;20567;-67
2022/02/17 04:11:12;;;;;;;32.95;18.42;;;;;;;;;;6309034;28;20063;-68
2022/02/17 04:14:13;;;;;;;34.67;19.08;;;;;;;;;;6308640;28;20105;-66
2022/02/17 04:17:15;;;;;;;35.60;19.00;;;;;;;;;;6307284;28;20054;-67
2022/02/17 04:20:16;;;;;;;34.50;18.80;;;;;;;;;;6312878;28;20131;-64
2022/02/17 04:23:19;;;;;;;33.40;18.92;;;;;;;;;;6319465;28;20056;-68
2022/02/17 04:26:22;;;;;;;35.03;18.92;;;;;;;;;;6315062;28;20143;-66
2022/02/17 04:29:23;;;;;;;34.72;19.80;;;;;;;;;;6315023;28;20186;-67
2022/02/17 04:32:25;;;;;;;31.75;18.23;;;;;;;;;;6310829;28;20205;-67
2022/02/17 04:35:26;;;;;;;32.22;17.90;;;;;;;;;;6312371;28;20919;-66
2022/02/17 04:38:30;;;;;;;31.75;17.63;;;;;;;;;;6311652;28;20547;-68
2022/02/17 04:44:51;;;;;;;33.08;18.13;;;;;;;;;;6310004;28;20043;-67
2022/02/17 04:47:54;;;;;;;30.08;17.48;;;;;;;;;;6315495;28;20142;-67
2022/02/17 04:50:56;;;;;;;29.57;17.67;;;;;;;;;;6307219;28;20053;-66
2022/02/17 04:53:59;;;;;;;31.40;17.77;;;;;;;;;;6306029;28;20527;-66
2022/02/17 04:57:00;;;;;;;30.30;17.35;;;;;;;;;;6306808;28;20132;-67
2022/02/17 05:00:02;;;;;;;31.33;16.80;;;;;;;;;;6312820;28;20381;-67
2022/02/17 05:03:04;;;;;;;27.85;17.23;;;;;;;;;;6314080;28;20127;-68
2022/02/17 05:06:05;;;;;;;29.63;16.17;;;;;;;;;;6310999;28;20052;-66
2022/02/17 05:09:08;;;;;;;29.65;16.35;;;;;;;;;;6310824;28;20519;-65
2022/02/17 05:12:10;;;;;;;28.25;16.35;;;;;;;;;;6306997;28;20052;-64
2022/02/17 05:15:11;;;;;;;28.10;15.60;;;;;;;;;;6304836;28;20036;-67
2022/02/17 05:18:13;;;;;;;25.15;15.45;;;;;;;;;;6305404;28;20123;-66
2022/02/17 05:21:14;;;;;;;23.45;13.95;;;;;;;;;;6302784;28;20054;-66
2022/02/17 05:24:17;;;;;;;22.88;13.68;;;;;;;;;;6303422;28;20075;-68
2022/02/17 05:27:19;;;;;;;24.60;15.40;;;;;;;;;;6301033;28;20678;-66
2022/02/17 05:30:20;;;;;;;29.30;16.27;;;;;;;;;;6306430;28;20463;-65
2022/02/17 05:33:22;;;;;;;29.30;15.73;;;;;;;;;;6308649;28;20049;-67
2022/02/17 05:36:24;;;;;;;27.83;16.02;;;;;;;;;;6307865;28;20076;-66
2022/02/17 05:39:27;;;;;;;25.65;14.82;;;;;;;;;;6304083;28;20125;-68
2022/02/17 05:42:28;;;;;;;26.52;15.60;;;;;;;;;;6305533;28;20059;-70
2022/02/17 05:45:30;;;;;;;26.63;16.35;;;;;;;;;;6308128;28;20131;-64
2022/02/17 05:48:31;;;;;;;28.65;16.42;;;;;;;;;;6305268;28;20044;-67
2022/02/17 05:51:33;;;;;;;25.67;15.80;;;;;;;;;;6305777;28;20044;-66
2022/02/17 05:54:36;;;;;;;27.15;15.85;;;;;;;;;;6306554;28;20102;-67
2022/02/17 05:57:37;;;;;;;25.27;15.65;;;;;;;;;;6306805;28;20041;-63
2022/02/17 06:00:40;;;;;;;27.92;16.52;;;;;;;;;;6306357;28;20080;-66
2022/02/17 06:03:41;;;;;;;26.48;16.10;;;;;;;;;;6304995;28;20105;-67
2022/02/17 06:06:43;;;;;;;29.35;16.83;;;;;;;;;;6303973;28;20040;-64
2022/02/17 06:09:48;;;;;;;27.30;15.57;;;;;;;;;;6310053;28;20189;-67
2022/02/17 06:12:49;;;;;;;27.75;16.67;;;;;;;;;;6311887;28;20051;-66
2022/02/17 06:15:51;;;;;;;33.33;16.80;;;;;;;;;;6306700;28;20536;-66
2022/02/17 06:18:52;;;;;;;30.67;16.48;;;;;;;;;;6308477;28;20143;-66
2022/02/17 06:21:54;;;;;;;26.15;15.63;;;;;;;;;;6307779;28;20139;-66
2022/02/17 06:24:57;;;;;;;25.70;15.65;;;;;;;;;;6308491;28;20060;-68
2022/02/17 06:28:00;;;;;;;28.60;16.13;;;;;;;;;;6306660;28;20112;-68
2022/02/17 06:31:01;;;;;;;26.20;16.23;;;;;;;;;;6307560;28;20108;-68
2022/02/17 06:34:03;;;;;;;26.00;16.50;;;;;;;;;;6302771;28;20477;-68
2022/02/17 06:37:05;;;;;;;28.70;16.45;;;;;;;;;;6306889;28;20095;-66
2022/02/17 06:40:09;;;;;;;29.58;16.83;;;;;;;;;;6303386;28;20037;-64
2022/02/17 06:43:12;;;;;;;27.83;16.55;;;;;;;;;;6307784;28;20159;-68
2022/02/17 06:46:14;;;;;;;29.35;16.67;;;;;;;;;;6308339;28;20138;-64
2022/02/17 06:49:15;;;;;;;32.45;17.13;;;;;;;;;;6307187;28;20131;-67
2022/02/17 06:52:17;;;;;;;28.33;16.25;;;;;;;;;;6305836;28;20634;-66
2022/02/17 06:55:20;;;;;;;24.55;14.43;;;;;;;;;;6309205;28;20800;-66
2022/02/17 06:58:21;;;;;;;25.30;15.60;;;;;;;;;;6310061;28;20114;-65
2022/02/17 07:01:23;;;;;;;21.23;14.32;;;;;;;;;;6307661;28;20052;-67
2022/02/17 07:04:25;;;;;;;20.85;14.40;;;;;;;;;;6313590;28;20186;-67
2022/02/17 07:07:26;;;;;;;26.92;16.42;;;;;;;;;;6308544;28;20080;-67
2022/02/17 07:13:48;;;;;;;20.90;14.50;;;;;;;;;;6307110;28;20118;-69
2022/02/17 07:16:53;;;;;;;24.95;13.55;;;;;;;;;;6317023;28;20492;-68
2022/02/17 07:19:55;;;;;;;21.67;13.85;;;;;;;;;;6309540;28;20040;-67
2022/02/17 07:22:56;;;;;;;24.70;13.70;;;;;;;;;;6311313;28;20509;-68
2022/02/17 07:25:59;;;;;;;23.58;13.93;;;;;;;;;;6306927;28;20174;-65
2022/02/17 07:29:01;;;;;;;22.20;13.85;;;;;;;;;;6308674;28;20167;-66
2022/02/17 07:32:03;;;;;;;23.35;14.65;;;;;;;;;;6305567;28;20114;-68
2022/02/17 07:35:05;;;;;;;21.48;13.80;;;;;;;;;;6305263;28;20059;-66
2022/02/17 07:38:07;;;;;;;21.58;13.45;;;;;;;;;;6306540;28;20128;-67
2022/02/17 07:41:11;;;;;;;25.00;13.57;;;;;;;;;;6303226;28;20051;-67
2022/02/17 07:44:13;;;;;;;21.70;12.68;;;;;;;;;;6308092;28;20048;-67
2022/02/17 07:47:15;;;;;;;21.65;13.07;;;;;;;;;;6304884;28;20179;-66
2022/02/17 07:50:18;;;;;;;27.17;13.80;;;;;;;;;;6307522;28;20059;-67
2022/02/17 07:53:19;;;;;;;22.15;13.05;;;;;;;;;;6314339;28;20137;-66
2022/02/17 07:56:22;;;;;;;22.85;13.38;;;;;;;;;;6311272;28;20553;-66
2022/02/17 07:59:24;;;;;;;19.15;12.80;;;;;;;;;;6309793;28;20545;-68
2022/02/17 08:02:25;;;;;;;23.85;15.45;;;;;;;;;;6310453;28;20100;-64
2022/02/17 08:05:27;;;;;;;23.00;15.93;;;;;;;;;;6309395;28;20087;-64
2022/02/17 08:08:28;;;;;;;28.27;16.40;;;;;;;;;;6306167;28;20093;-63
2022/02/17 08:11:31;;;;;;;26.27;16.38;;;;;;;;;;6304490;28;20651;-63
2022/02/17 08:14:33;;;;;;;27.08;17.20;;;;;;;;;;6301845;28;20134;-64
2022/02/17 08:17:34;;;;;;;25.23;15.90;;;;;;;;;;6304078;28;20094;-63
2022/02/17 08:20:36;;;;;;;26.50;17.13;;;;;;;;;;6308797;28;20496;-64
2022/02/17 08:23:38;;;;;;;26.48;17.67;;;;;;;;;;6311549;28;20085;-64
2022/02/17 08:26:42;;;;;;;23.98;16.00;;;;;;;;;;6313200;28;20385;-65
2022/02/17 08:29:43;;;;;;;30.65;18.60;;;;;;;;;;6311280;28;20462;-64
2022/02/17 08:32:45;;;;;;;28.48;17.50;;;;;;;;;;6313371;28;20178;-66
2022/02/17 08:35:46;;;;;;;27.20;16.40;;;;;;;;;;6312684;28;20127;-68
2022/02/17 08:38:48;;;;;;;30.55;17.55;;;;;;;;;;6310861;28;20177;-64
2022/02/17 08:41:51;;;;;;;68.97;21.35;;;;;;;;;;6307927;28;20455;-67
2022/02/17 08:44:52;;;;;;;41.67;18.10;;;;;;;;;;6304406;28;20512;-66
2022/02/17 08:47:54;;;;;;;71.75;19.33;;;;;;;;;;6306080;28;20115;-66
2022/02/17 08:50:55;;;;;;;44.08;17.23;;;;;;;;;;6305939;28;20127;-66
2022/02/17 08:53:57;;;;;;;31.67;16.48;;;;;;;;;;6305424;28;20131;-66
2022/02/17 08:57:00;;;;;;;34.33;15.40;;;;;;;;;;6306067;28;20131;-66
2022/02/17 09:00:02;;;;;;;32.22;15.38;;;;;;;;;;6310849;28;20142;-66
2022/02/17 09:03:04;;;;;;;84.55;20.45;;;;;;;;;;6310828;28;20503;-68
2022/02/17 09:06:06;;;;;;;56.65;16.30;;;;;;;;;;6315604;28;20098;-67
2022/02/17 09:09:08;;;;;;;21.77;12.77;;;;;;;;;;6308561;28;20041;-66
2022/02/17 09:12:11;;;;;;;49.70;15.60;;;;;;;;;;6307762;28;20083;-67
2022/02/17 09:15:13;;;;;;;35.67;12.43;;;;;;;;;;6307134;28;20048;-66
2022/02/17 09:18:14;;;;;;;24.48;12.70;;;;;;;;;;6306997;28;20458;-67
2022/02/17 09:21:16;;;;;;;42.58;13.75;;;;;;;;;;6308980;28;20048;-67
2022/02/17 09:24:18;;;;;;;19.40;12.15;;;;;;;;;;6307619;28;20050;-65
2022/02/17 09:27:21;;;;;;;24.00;12.57;;;;;;;;;;6302614;28;20071;-66
2022/02/17 09:30:22;;;;;;;25.63;14.18;;;;;;;;;;6300280;28;20488;-66
2022/02/17 09:33:25;;;;;;;55.95;34.40;;;;;;;;;;6299808;28;20153;-66
2022/02/17 09:36:27;;;;;;;71.70;54.67;;;;;;;;;;6307328;28;20059;-65
2022/02/17 09:39:29;;;;;;;58.25;39.80;;;;;;;;;;6314532;28;20072;-66
2022/02/17 09:42:37;;;;;;;39.33;18.10;;;;;;;;;;6307294;28;20131;-66
2022/02/17 09:45:43;;;;;;;27.00;16.10;;;;;;;;;;6308090;28;20048;-66
2022/02/17 09:48:45;;;;;;;24.48;15.38;;;;;;;;;;6309512;28;20047;-66
2022/02/17 09:51:48;;;;;;;34.78;16.00;;;;;;;;;;6308724;28;20055;-66
2022/02/17 09:54:51;;;;;;;24.88;15.45;;;;;;;;;;6308239;28;20051;-66
2022/02/17 09:57:54;;;;;;;30.25;17.52;;;;;;;;;;6308733;28;20040;-66
2022/02/17 10:00:56;;;;;;;30.67;17.83;;;;;;;;;;6306193;28;20497;-67
2022/02/17 10:04:14;;;;;;;28.92;17.25;;;;;;;;;;6308076;28;20043;-65
2022/02/17 10:07:28;;;;;;;30.38;17.15;;;;;;;;;;6301223;28;20044;-66
2022/02/17 10:10:40;;;;;;;28.80;17.17;;;;;;;;;;6303273;28;20533;-67
2022/02/17 10:13:59;;;;;;;32.38;16.58;;;;;;;;;;6304498;28;20547;-70
2022/02/17 10:17:03;;;;;;;26.38;17.63;;;;;;;;;;6303903;28;20052;-66
2022/02/17 10:20:05;;;;;;;33.67;17.35;;;;;;;;;;6303398;28;20563;-66
2022/02/17 10:23:07;;;;;;;27.63;17.73;;;;;;;;;;6305306;28;20702;-66
2022/02/17 10:26:12;;;;;;;30.67;18.00;;;;;;;;;;6305337;28;20123;-66
2022/02/17 10:29:16;;;;;;;32.80;17.20;;;;;;;;;;6305721;28;20055;-66
2022/02/17 10:32:18;;;;;;;24.13;17.35;;;;;;;;;;6308101;28;20048;-66
2022/02/17 10:35:20;;;;;;;23.73;17.52;;;;;;;;;;6305642;28;20170;-67
2022/02/17 10:38:22;;;;;;;28.30;17.13;;;;;;;;;;6306061;28;20624;-65
2022/02/17 10:41:44;;;;;;;21.38;15.60;;;;;;;;;;6304034;28;20051;-66
2022/02/17 10:44:47;;;;;;;23.10;14.88;;;;;;;;;;6304429;28;20049;-66
2022/02/17 10:47:48;;;;;;;22.50;13.80;;;;;;;;;;6306811;28;20506;-66
2022/02/17 10:51:04;;;;;;;19.00;13.98;;;;;;;;;;6308572;28;20132;-66
2022/02/17 10:54:06;;;;;;;19.15;13.82;;;;;;;;;;6304828;28;20113;-66
2022/02/17 10:57:08;;;;;;;20.90;12.90;;;;;;;;;;6305621;28;20048;-66
2022/02/17 11:00:16;;;;;;;23.80;12.77;;;;;;;;;;6309161;28;20115;-65
2022/02/17 11:03:18;;;;;;;19.20;11.82;;;;;;;;;;6305286;28;20048;-68
2022/02/17 11:06:21;;;;;;;15.50;10.07;;;;;;;;;;6305057;28;20064;-65
2022/02/17 11:09:22;;;;;;;13.88;8.65;;;;;;;;;;6303891;28;20143;-65
2022/02/17 11:12:25;;;;;;;12.60;8.10;;;;;;;;;;6300122;28;20622;-65
2022/02/17 11:15:28;;;;;;;10.23;6.97;;;;;;;;;;6304606;28;20036;-65
2022/02/17 11:18:30;;;;;;;10.95;6.65;;;;;;;;;;6301611;28;20052;-65
2022/02/17 11:21:31;;;;;;;9.45;6.25;;;;;;;;;;6303929;28;20127;-65
2022/02/17 11:24:46;;;;;;;11.05;6.63;;;;;;;;;;6303843;28;20193;-66
2022/02/17 11:27:58;;;;;;;11.50;6.53;;;;;;;;;;6304309;28;20057;-65
2022/02/17 11:31:03;;;;;;;12.05;6.95;;;;;;;;;;6304434;28;20294;-65
2022/02/17 11:34:07;;;;;;;10.57;6.75;;;;;;;;;;6301607;28;20047;-65
2022/02/17 11:37:31;;;;;;;12.45;7.28;;;;;;;;;;6302966;28;20158;-65
2022/02/17 11:41:06;;;;;;;8.23;6.13;;;;;;;;;;6308515;28;20139;-64
2022/02/17 11:44:10;;;;;;;10.80;6.80;;;;;;;;;;6306390;28;20127;-64
2022/02/17 11:47:13;;;;;;;10.30;5.97;;;;;;;;;;6309143;28;20059;-64
2022/02/17 11:50:31;;;;;;;11.13;6.03;;;;;;;;;;6315519;28;20127;-64
2022/02/17 11:53:34;;;;;;;10.07;6.18;;;;;;;;;;6306883;28;20485;-66
2022/02/17 11:56:37;;;;;;;10.25;6.82;;;;;;;;;;6311432;28;20048;-65
2022/02/17 11:59:38;;;;;;;10.60;5.60;;;;;;;;;;6311302;28;20044;-64
2022/02/17 12:02:44;;;;;;;11.15;6.28;;;;;;;;;;6310815;28;20174;-64
2022/02/17 12:05:46;;;;;;;17.00;6.53;;;;;;;;;;6306744;28;20045;-65
2022/02/17 12:08:53;;;;;;;19.20;6.35;;;;;;;;;;6305476;28;20137;-64
2022/02/17 12:11:54;;;;;;;8.38;6.10;;;;;;;;;;6304604;28;20131;-66
2022/02/17 12:14:57;;;;;;;9.95;5.63;;;;;;;;;;6306180;28;20094;-66
2022/02/17 12:18:00;;;;;;;13.77;6.63;;;;;;;;;;6308682;28;20169;-65
2022/02/17 12:21:02;;;;;;;11.02;5.68;;;;;;;;;;6310794;28;20095;-65
2022/02/17 12:24:04;;;;;;;12.38;5.50;;;;;;;;;;6311895;28;20056;-65
2022/02/17 12:27:06;;;;;;;9.32;5.80;;;;;;;;;;6307535;28;20055;-65
2022/02/17 12:30:09;;;;;;;8.02;5.68;;;;;;;;;;6305107;28;20052;-66
2022/02/17 12:33:14;;;;;;;10.75;6.10;;;;;;;;;;6313017;28;20371;-68
2022/02/17 12:36:18;;;;;;;7.68;5.97;;;;;;;;;;6313842;28;20102;-66
2022/02/17 12:39:21;;;;;;;20.02;7.00;;;;;;;;;;6308658;28;20052;-67
2022/02/17 12:42:24;;;;;;;19.15;6.50;;;;;;;;;;6307814;28;20124;-65
2022/02/17 12:45:50;;;;;;;12.88;6.40;;;;;;;;;;6309404;28;20091;-64
2022/02/17 12:48:53;;;;;;;14.80;6.88;;;;;;;;;;6301540;28;20474;-62
2022/02/17 12:52:07;;;;;;;11.30;6.03;;;;;;;;;;6305102;28;20051;-64
2022/02/17 12:55:10;;;;;;;10.75;6.50;;;;;;;;;;6304679;28;20074;-64
2022/02/17 12:58:12;;;;;;;9.02;6.28;;;;;;;;;;6300700;28;20052;-64
2022/02/17 13:01:21;;;;;;;10.63;6.07;;;;;;;;;;6303195;28;20119;-65
2022/02/17 13:04:24;;;;;;;7.88;6.10;;;;;;;;;;6311476;28;20454;-64
2022/02/17 13:07:29;;;;;;;12.18;6.40;;;;;;;;;;6310598;28;20075;-64
2022/02/17 13:10:33;;;;;;;11.38;6.75;;;;;;;;;;6308787;28;20045;-64
2022/02/17 13:13:35;;;;;;;10.00;6.60;;;;;;;;;;6308859;28;20127;-64
2022/02/17 13:16:38;;;;;;;8.60;6.22;;;;;;;;;;6308295;28;20123;-64
2022/02/17 13:19:43;;;;;;;10.35;6.50;;;;;;;;;;6307376;28;20048;-62
2022/02/17 13:22:44;;;;;;;8.75;6.10;;;;;;;;;;6307048;28;20527;-64
2022/02/17 13:25:46;;;;;;;9.98;6.15;;;;;;;;;;6301744;28;20058;-64
2022/02/17 13:28:51;;;;;;;10.68;6.85;;;;;;;;;;6306726;28;20056;-64
2022/02/17 13:31:53;;;;;;;12.77;6.97;;;;;;;;;;6304255;28;20067;-64
2022/02/17 13:35:02;;;;;;;12.95;7.05;;;;;;;;;;6308920;28;20071;-62
2022/02/17 13:38:06;;;;;;;17.95;7.68;;;;;;;;;;6305236;28;20064;-64
2022/02/17 13:41:12;;;;;;;9.55;7.68;;;;;;;;;;6307964;28;20102;-65
2022/02/17 13:44:14;;;;;;;13.07;7.78;;;;;;;;;;6308004;28;20254;-65
2022/02/17 13:47:17;;;;;;;13.10;7.82;;;;;;;;;;6311027;28;20134;-64
2022/02/17 13:50:20;;;;;;;11.70;7.60;;;;;;;;;;6310545;28;20106;-63
2022/02/17 13:53:22;;;;;;;;;;;;;;;;;;6304904;28;20131;-65
2022/02/17 13:56:24;;;;;;;13.90;8.60;;;;;;;;;;6304115;28;19934;-65
2022/02/17 13:59:26;;;;;;;16.40;9.65;;;;;;;;;;6306347;28;20446;-65
2022/02/17 14:02:30;;;;;;;14.63;8.40;;;;;;;;;;6303670;28;20047;-67
2022/02/17 14:05:34;;;;;;;11.02;8.32;;;;;;;;;;6305542;28;20075;-65
2022/02/17 14:08:35;;;;;;;16.05;9.82;;;;;;;;;;6305191;28;20261;-65
2022/02/17 14:11:37;;;;;;;17.42;9.27;;;;;;;;;;6298265;28;20119;-67
2022/02/17 14:14:39;;;;;;;12.77;8.93;;;;;;;;;;6302858;28;20064;-64
2022/02/17 14:17:41;;;;;;;15.88;8.98;;;;;;;;;;6305870;28;20032;-65
2022/02/17 14:20:44;;;;;;;17.42;9.48;;;;;;;;;;6305377;28;20044;-65
2022/02/17 14:23:46;;;;;;;28.10;9.98;;;;;;;;;;6308988;28;20048;-67
2022/02/17 14:26:48;;;;;;;18.83;10.32;;;;;;;;;;6309116;28;20173;-65
2022/02/17 14:29:49;;;;;;;22.40;10.15;;;;;;;;;;6307246;28;20040;-65
2022/02/17 14:32:51;;;;;;;21.23;9.68;;;;;;;;;;6305858;28;20116;-67
2022/02/17 14:35:54;;;;;;;22.27;10.65;;;;;;;;;;6303024;28;20125;-67
2022/02/17 14:38:55;;;;;;;22.30;12.10;;;;;;;;;;6305869;28;20055;-67
2022/02/17 14:41:57;;;;;;;16.10;10.68;;;;;;;;;;6305109;28;20131;-64
2022/02/17 14:44:59;;;;;;;30.42;19.73;;;;;;;;;;6302749;28;20115;-64
2022/02/17 14:48:01;;;;;;;16.75;12.32;;;;;;;;;;6296568;28;20044;-63
2022/02/17 14:51:04;;;;;;;17.58;11.98;;;;;;;;;;6304704;28;20450;-65
2022/02/17 14:54:06;;;;;;;16.25;10.57;;;;;;;;;;6308998;28;20153;-63
2022/02/17 14:57:07;;;;;;;16.77;11.35;;;;;;;;;;6308197;28;20084;-64
2022/02/17 15:00:10;;;;;;;16.65;10.23;;;;;;;;;;6305858;28;20547;-65
2022/02/17 15:03:11;;;;;;;16.63;10.87;;;;;;;;;;6305158;28;20535;-64
2022/02/17 15:06:14;;;;;;;15.63;10.68;;;;;;;;;;6305470;28;20052;-64
2022/02/17 15:09:16;;;;;;;16.15;10.60;;;;;;;;;;6302607;28;20756;-64
2022/02/17 15:12:18;;;;;;;16.58;10.63;;;;;;;;;;6303067;28;20618;-64
2022/02/17 15:15:19;;;;;;;17.83;11.00;;;;;;;;;;6305439;28;20048;-64
2022/02/17 15:18:21;;;;;;;16.40;10.73;;;;;;;;;;6306616;28;20048;-64
2022/02/17 15:21:24;;;;;;;17.35;10.50;;;;;;;;;;6309341;28;20098;-64
2022/02/17 15:24:26;;;;;;;16.30;10.50;;;;;;;;;;6307906;28;20072;-63
2022/02/17 15:27:27;;;;;;;20.63;11.15;;;;;;;;;;6309549;28;20647;-64
2022/02/17 15:30:30;;;;;;;18.75;9.88;;;;;;;;;;6311300;28;20086;-64
2022/02/17 15:33:32;;;;;;;14.40;10.27;;;;;;;;;;6310059;28;20045;-64
2022/02/17 15:36:35;;;;;;;17.05;11.13;;;;;;;;;;6309258;28;20132;-65
2022/02/17 15:39:37;;;;;;;14.75;10.80;;;;;;;;;;6311621;28;20488;-64
2022/02/17 15:42:39;;;;;;;20.45;10.90;;;;;;;;;;6309562;28;20139;-63
2022/02/17 15:45:40;;;;;;;14.27;9.93;;;;;;;;;;6308580;28;20064;-67
2022/02/17 15:48:42;;;;;;;14.95;11.00;;;;;;;;;;6308697;28;20133;-64
2022/02/17 15:51:46;;;;;;;15.05;10.65;;;;;;;;;;6305602;28;20036;-65
2022/02/17 15:54:48;;;;;;;15.02;11.25;;;;;;;;;;6308223;28;20416;-65
2022/02/17 15:57:49;;;;;;;17.58;11.98;;;;;;;;;;6304497;28;20526;-65
2022/02/17 16:00:51;;;;;;;15.85;11.73;;;;;;;;;;6308225;28;20175;-66
2022/02/17 16:03:54;;;;;;;23.92;12.60;;;;;;;;;;6306233;28;20655;-66
2022/02/17 16:06:57;;;;;;;15.30;11.15;;;;;;;;;;6306383;28;20505;-65
2022/02/17 16:09:58;;;;;;;16.27;12.02;;;;;;;;;;6304890;28;20127;-65
2022/02/17 16:13:00;;;;;;;19.70;11.88;;;;;;;;;;6306278;28;20645;-66
2022/02/17 16:16:01;;;;;;;15.23;11.80;;;;;;;;;;6304581;28;20131;-66
2022/02/17 16:19:03;;;;;;;15.48;11.05;;;;;;;;;;6304597;28;20526;-65
2022/02/17 16:22:06;;;;;;;19.30;11.85;;;;;;;;;;6304443;28;20209;-66
2022/02/17 16:25:08;;;;;;;17.97;11.37;;;;;;;;;;6305201;28;20101;-65
2022/02/17 16:28:09;;;;;;;17.75;11.90;;;;;;;;;;6301801;28;20182;-65
2022/02/17 16:31:11;;;;;;;16.60;11.75;;;;;;;;;;6306498;28;20124;-66
2022/02/17 16:34:15;;;;;;;15.63;11.25;;;;;;;;;;6304464;28;20179;-65
2022/02/17 16:37:18;;;;;;;29.13;18.70;;;;;;;;;;6307251;28;21246;-66
2022/02/17 16:40:21;;;;;;;24.70;16.27;;;;;;;;;;6311583;28;20197;-63
2022/02/17 16:43:23;;;;;;;19.00;11.38;;;;;;;;;;6305834;28;20135;-65
2022/02/17 16:46:24;;;;;;;21.00;12.43;;;;;;;;;;6303143;28;20136;-66
2022/02/17 16:49:26;;;;;;;16.40;11.48;;;;;;;;;;6306009;28;20113;-66
2022/02/17 16:52:29;;;;;;;17.35;11.57;;;;;;;;;;6301629;28;20188;-66
2022/02/17 16:55:31;;;;;;;17.97;12.27;;;;;;;;;;6303171;28;20040;-66
2022/02/17 16:58:32;;;;;;;17.95;11.48;;;;;;;;;;6303027;28;20059;-67
2022/02/17 17:01:35;;;;;;;15.80;11.68;;;;;;;;;;6310017;28;20074;-65
2022/02/17 17:04:36;;;;;;;15.60;11.15;;;;;;;;;;6309110;28;20044;-65
2022/02/17 17:07:39;;;;;;;17.95;11.70;;;;;;;;;;6310277;28;20097;-65
2022/02/17 17:10:46;;;;;;;17.60;12.20;;;;;;;;;;6312173;28;20517;-65
2022/02/17 17:13:48;;;;;;;16.02;11.52;;;;;;;;;;6315220;28;20047;-66
2022/02/17 17:16:49;;;;;;;21.75;10.98;;;;;;;;;;6309187;28;20134;-66
2022/02/17 17:19:51;;;;;;;14.88;11.27;;;;;;;;;;6305965;28;20051;-65
2022/02/17 17:22:56;;;;;;;16.20;11.40;;;;;;;;;;6305514;28;20114;-65
2022/02/17 17:25:57;;;;;;;17.15;11.27;;;;;;;;;;6303497;28;20056;-66
2022/02/17 17:28:59;;;;;;;19.13;11.48;;;;;;;;;;6307786;28;20134;-66
2022/02/17 17:32:00;;;;;;;16.08;11.75;;;;;;;;;;6306093;28;20052;-65
2022/02/17 17:35:02;;;;;;;21.42;10.98;;;;;;;;;;6307650;28;20533;-68
2022/02/17 17:38:05;;;;;;;18.17;12.27;;;;;;;;;;6300373;28;20045;-65
2022/02/17 17:41:06;;;;;;;22.27;12.10;;;;;;;;;;6301197;28;20124;-65
2022/02/17 17:44:08;;;;;;;15.20;10.63;;;;;;;;;;6307613;28;20189;-66
2022/02/17 17:47:09;;;;;;;19.35;11.45;;;;;;;;;;6313734;28;20101;-65
2022/02/17 17:50:11;;;;;;;18.90;10.57;;;;;;;;;;6306617;28;20121;-65
2022/02/17 17:53:14;;;;;;;19.38;10.45;;;;;;;;;;6305941;28;20628;-66
2022/02/17 17:56:16;;;;;;;20.83;13.15;;;;;;;;;;6309231;28;20548;-66